createdAt,value
2023-01-17T00:02:05.920Z,2.67
2023-01-17T00:04:52.122Z,2.57
2023-01-17T00:07:40.785Z,6.80
2023-01-17T00:10:11.453Z,1.60
2023-01-17T00:12:39.805Z,5.77
2023-01-17T00:15:11.240Z,2.87
2023-01-17T00:17:39.920Z,3.23
2023-01-17T00:20:27.273Z,4.87
2023-01-17T00:23:12.939Z,3.57
2023-01-17T00:25:59.586Z,7.13
2023-01-17T00:28:27.506Z,10.97
2023-01-17T00:30:56.033Z,4.70
2023-01-17T00:33:24.441Z,9.80
2023-01-17T00:35:53.955Z,6.83
2023-01-17T00:38:23.228Z,14.27
2023-01-17T00:40:50.741Z,13.93
2023-01-17T00:43:39.644Z,11.97
2023-01-17T00:46:27.476Z,9.37
2023-01-17T00:49:13.590Z,12.30
2023-01-17T00:51:59.129Z,9.40
2023-01-17T00:54:44.950Z,9.07
2023-01-17T00:57:31.048Z,11.30
2023-01-17T01:00:17.110Z,8.17
2023-01-17T01:03:04.907Z,5.83
2023-01-17T01:05:50.437Z,7.13
2023-01-17T01:08:38.914Z,6.43
2023-01-17T01:11:26.731Z,3.70
2023-01-17T01:14:13.320Z,2.80
2023-01-17T01:16:59.844Z,5.43
2023-01-17T01:19:47.677Z,6.37
2023-01-17T01:22:33.912Z,3.13
2023-01-17T01:25:19.648Z,5.53
2023-01-17T01:28:05.721Z,2.13
2023-01-17T01:30:51.542Z,4.10
2023-01-17T01:33:18.813Z,5.07
2023-01-17T01:35:49.941Z,3.90
2023-01-17T01:38:18.650Z,6.87
2023-01-17T01:40:48.699Z,2.97
2023-01-17T01:43:19.865Z,2.87
2023-01-17T01:45:52.791Z,2.37
2023-01-17T01:48:34.925Z,2.40
2023-01-17T01:51:09.588Z,5.40
2023-01-17T01:53:41.958Z,1.90
2023-01-17T01:56:13.926Z,1.30
2023-01-17T01:58:44.852Z,3.33
2023-01-17T02:01:14.370Z,2.03
2023-01-17T02:03:43.596Z,3.10
2023-01-17T02:06:27.064Z,1.07
2023-01-17T02:08:57.126Z,1.07
2023-01-17T02:11:25.545Z,1.13
2023-01-17T02:13:54.002Z,4.30
2023-01-17T02:16:34.777Z,1.70
2023-01-17T02:19:21.830Z,1.60
2023-01-17T02:22:08.693Z,3.40
2023-01-17T02:25:04.516Z,2.23
2023-01-17T02:27:45.044Z,2.57
2023-01-17T02:30:40.583Z,1.43
2023-01-17T02:33:24.036Z,3.30
2023-01-17T02:36:04.384Z,1.03
2023-01-17T02:38:41.410Z,3.60
2023-01-17T02:41:17.585Z,2.47
2023-01-17T02:43:46.441Z,1.57
2023-01-17T02:46:16.480Z,4.07
2023-01-17T02:48:47.032Z,1.90
2023-01-17T02:51:41.565Z,2.70
2023-01-17T02:54:25.120Z,3.87
2023-01-17T02:57:04.601Z,2.30
2023-01-17T02:59:42.146Z,2.13
2023-01-17T03:02:22.980Z,5.30
2023-01-17T03:04:56.720Z,3.60
2023-01-17T03:07:28.452Z,6.03
2023-01-17T03:10:00.599Z,5.00
2023-01-17T03:12:29.923Z,4.17
2023-01-17T03:14:58.461Z,7.47
2023-01-17T03:17:32.883Z,7.77
2023-01-17T03:20:01.165Z,4.33
2023-01-17T03:22:29.573Z,4.73
2023-01-17T03:24:57.883Z,5.27
2023-01-17T03:27:26.217Z,4.90
2023-01-17T03:29:54.533Z,4.73
2023-01-17T03:32:22.913Z,7.43
2023-01-17T03:34:52.671Z,6.53
2023-01-17T03:37:21.224Z,6.67
2023-01-17T03:39:49.570Z,4.13
2023-01-17T03:42:17.939Z,7.03
2023-01-17T03:44:46.397Z,5.63
2023-01-17T03:47:14.689Z,5.97
2023-01-17T03:49:43.230Z,8.47
2023-01-17T03:52:13.077Z,9.00
2023-01-17T03:54:42.209Z,4.33
2023-01-17T03:57:12.580Z,8.17
2023-01-17T03:59:40.916Z,3.97
2023-01-17T04:02:09.430Z,6.60
2023-01-17T04:04:37.864Z,3.10
2023-01-17T04:07:06.417Z,4.93
2023-01-17T04:09:36.074Z,2.53
2023-01-17T04:12:04.659Z,4.70
2023-01-17T04:14:33.001Z,2.97
2023-01-17T04:17:01.535Z,6.13
2023-01-17T04:19:37.308Z,6.20
2023-01-17T04:22:05.937Z,5.23
2023-01-17T04:24:35.947Z,6.03
2023-01-17T04:27:05.550Z,3.73
2023-01-17T04:29:34.177Z,6.40
2023-01-17T04:32:02.824Z,4.70
2023-01-17T04:34:31.150Z,7.30
2023-01-17T04:36:59.482Z,5.73
2023-01-17T04:39:27.781Z,5.90
2023-01-17T04:41:57.769Z,7.67
2023-01-17T04:44:26.119Z,7.10
2023-01-17T04:46:54.444Z,11.67
2023-01-17T04:49:22.794Z,5.27
2023-01-17T04:51:51.274Z,7.97
2023-01-17T04:54:19.666Z,8.50
2023-01-17T04:56:49.101Z,5.83
2023-01-17T04:59:18.861Z,7.63
2023-01-17T05:01:49.536Z,13.63
2023-01-17T05:04:18.275Z,9.57
2023-01-17T05:06:46.572Z,14.43
2023-01-17T05:09:14.846Z,9.93
2023-01-17T05:11:43.093Z,13.90
2023-01-17T05:14:12.111Z,14.40
2023-01-17T05:16:41.855Z,18.43
2023-01-17T05:19:10.214Z,14.73
2023-01-17T05:21:38.498Z,14.40
2023-01-17T05:24:07.536Z,16.43
2023-01-17T05:26:35.855Z,17.67
2023-01-17T05:29:04.285Z,15.50
2023-01-17T05:31:32.584Z,20.57
2023-01-17T05:34:02.381Z,15.73
2023-01-17T05:36:30.745Z,20.63
2023-01-17T05:38:59.076Z,17.90
2023-01-17T05:41:27.473Z,25.00
2023-01-17T05:43:55.939Z,19.50
2023-01-17T05:46:24.377Z,20.43
2023-01-17T05:48:54.191Z,21.70
2023-01-17T05:51:24.879Z,17.47
2023-01-17T05:53:53.452Z,18.50
2023-01-17T05:56:21.789Z,20.27
2023-01-17T05:58:50.276Z,22.07
2023-01-17T06:01:19.676Z,18.23
2023-01-17T06:03:48.163Z,20.93
2023-01-17T06:06:16.586Z,25.13
2023-01-17T06:08:46.363Z,24.00
2023-01-17T06:11:15.173Z,21.37
2023-01-17T06:13:43.458Z,34.00
2023-01-17T06:16:11.884Z,21.50
2023-01-17T06:18:40.282Z,23.90
2023-01-17T06:21:08.579Z,20.70
2023-01-17T06:23:37.125Z,23.97
2023-01-17T06:26:09.174Z,23.63
2023-01-17T06:28:37.881Z,24.90
2023-01-17T06:31:10.219Z,22.30
2023-01-17T06:33:38.572Z,23.67
2023-01-17T06:36:07.559Z,20.20
2023-01-17T06:38:36.333Z,20.73
2023-01-17T06:41:07.141Z,27.07
2023-01-17T06:43:36.114Z,22.93
2023-01-17T06:46:04.518Z,23.43
2023-01-17T06:48:32.932Z,23.50
2023-01-17T06:51:02.056Z,23.83
2023-01-17T06:53:30.328Z,23.80
2023-01-17T06:55:58.753Z,19.70
2023-01-17T06:58:28.447Z,24.93
2023-01-17T07:00:56.844Z,22.07
2023-01-17T07:03:27.262Z,22.03
2023-01-17T07:05:56.170Z,19.93
2023-01-17T07:08:24.561Z,25.30
2023-01-17T07:10:52.824Z,24.03
2023-01-17T07:13:21.105Z,24.70
2023-01-17T07:15:50.878Z,20.87
2023-01-17T07:18:23.106Z,20.83
2023-01-17T07:20:52.120Z,24.43
2023-01-17T07:23:21.866Z,24.13
2023-01-17T07:25:53.079Z,31.40
2023-01-17T07:28:21.874Z,27.23
2023-01-17T07:30:53.238Z,24.70
2023-01-17T07:33:22.368Z,27.70
2023-01-17T07:35:50.688Z,32.63
2023-01-17T07:38:20.699Z,35.80
2023-01-17T07:40:49.105Z,28.27
2023-01-17T07:43:17.521Z,38.23
2023-01-17T07:45:49.597Z,32.73
2023-01-17T07:48:20.731Z,29.10
2023-01-17T07:50:53.793Z,24.47
2023-01-17T07:53:25.345Z,25.83
2023-01-17T07:55:54.139Z,26.73
2023-01-17T07:58:23.230Z,24.53
2023-01-17T08:00:51.827Z,26.30
2023-01-17T08:03:21.654Z,29.37
2023-01-17T08:05:56.262Z,27.90
2023-01-17T08:08:24.758Z,28.50
2023-01-17T08:10:53.624Z,27.90
2023-01-17T08:13:22.124Z,27.60
2023-01-17T08:15:50.854Z,27.53
2023-01-17T08:18:19.411Z,33.93
2023-01-17T08:20:49.121Z,21.73
2023-01-17T08:23:17.406Z,33.37
2023-01-17T08:25:46.016Z,37.77
2023-01-17T08:28:16.002Z,28.63
2023-01-17T08:30:44.530Z,31.57
2023-01-17T08:33:12.895Z,32.73
2023-01-17T08:35:41.494Z,30.53
2023-01-17T08:38:11.345Z,31.97
2023-01-17T08:40:39.727Z,36.40
2023-01-17T08:43:08.101Z,31.03
2023-01-17T08:45:36.405Z,37.03
2023-01-17T08:48:05.233Z,36.40
2023-01-17T08:50:33.623Z,33.17
2023-01-17T08:53:02.083Z,36.07
2023-01-17T08:55:33.379Z,35.40
2023-01-17T08:58:01.793Z,35.77
2023-01-17T09:00:30.128Z,35.70
2023-01-17T09:02:59.228Z,31.03
2023-01-17T09:05:27.592Z,30.30
2023-01-17T09:07:56.572Z,30.70
2023-01-17T09:10:25.232Z,31.10
2023-01-17T09:12:55.033Z,26.13
2023-01-17T09:15:23.431Z,28.60
2023-01-17T09:17:51.819Z,29.17
2023-01-17T09:20:21.560Z,35.07
2023-01-17T09:22:51.280Z,25.37
2023-01-17T09:25:19.625Z,30.10
2023-01-17T09:27:48.283Z,25.87
2023-01-17T09:30:18.895Z,32.60
2023-01-17T09:32:53.480Z,34.13
2023-01-17T09:35:21.984Z,34.47
2023-01-17T09:37:50.880Z,24.37
2023-01-17T09:40:22.060Z,26.00
2023-01-17T09:42:53.158Z,26.80
2023-01-17T09:45:22.922Z,29.47
2023-01-17T09:47:53.729Z,24.13
2023-01-17T09:50:31.563Z,25.87
2023-01-17T09:53:02.865Z,29.43
2023-01-17T09:55:41.276Z,35.30
2023-01-17T09:58:14.193Z,28.27
2023-01-17T10:00:55.185Z,33.40
2023-01-17T10:03:47.725Z,24.63
2023-01-17T10:06:41.851Z,25.60
2023-01-17T10:09:54.207Z,21.50
2023-01-17T10:12:32.389Z,24.23
2023-01-17T10:15:28.189Z,22.93
2023-01-17T10:18:05.501Z,25.00
2023-01-17T10:20:46.106Z,26.63
2023-01-17T10:23:47.611Z,26.70
2023-01-17T10:26:19.771Z,22.67
2023-01-17T10:28:51.282Z,23.17
2023-01-17T10:31:24.704Z,22.47
2023-01-17T10:33:56.555Z,23.47
2023-01-17T10:36:26.636Z,16.23
2023-01-17T10:38:59.079Z,17.27
2023-01-17T10:41:30.482Z,23.13
2023-01-17T10:44:08.033Z,14.20
2023-01-17T10:46:42.440Z,16.00
2023-01-17T10:49:17.841Z,16.10
2023-01-17T10:52:06.202Z,16.83
2023-01-17T10:54:49.571Z,18.70
2023-01-17T10:57:24.519Z,20.87
2023-01-17T10:59:54.103Z,24.53
2023-01-17T11:02:26.106Z,24.70
2023-01-17T11:04:58.447Z,16.83
2023-01-17T11:07:29.216Z,18.30
2023-01-17T11:09:59.218Z,17.57
2023-01-17T11:12:30.429Z,24.50
2023-01-17T11:15:03.322Z,17.30
2023-01-17T11:17:34.048Z,20.20
2023-01-17T11:20:20.195Z,15.90
2023-01-17T11:23:03.987Z,15.00
2023-01-17T11:25:35.239Z,19.97
2023-01-17T11:28:07.219Z,20.23
2023-01-17T11:30:35.937Z,12.40
2023-01-17T11:33:06.298Z,16.27
2023-01-17T11:35:37.196Z,11.73
2023-01-17T11:38:08.414Z,14.53
2023-01-17T11:40:40.801Z,10.23
2023-01-17T11:43:22.012Z,10.80
2023-01-17T11:46:05.691Z,15.07
2023-01-17T11:48:37.125Z,10.83
2023-01-17T11:51:20.400Z,21.97
2023-01-17T11:53:49.456Z,15.63
2023-01-17T11:56:35.431Z,12.90
2023-01-17T11:59:31.829Z,11.10
2023-01-17T12:02:31.930Z,9.23
2023-01-17T12:05:15.524Z,10.30
2023-01-17T12:07:54.620Z,9.47
2023-01-17T12:10:27.557Z,19.47
2023-01-17T12:13:25.856Z,11.13
2023-01-17T12:16:26.314Z,8.47
2023-01-17T12:19:05.231Z,9.50
2023-01-17T12:21:46.710Z,7.83
2023-01-17T12:24:37.277Z,11.47
2023-01-17T12:27:13.797Z,13.90
2023-01-17T12:29:58.924Z,11.93
2023-01-17T12:32:55.441Z,9.00
2023-01-17T12:35:31.591Z,10.07
2023-01-17T12:38:06.865Z,7.37
2023-01-17T12:40:42.894Z,7.80
2023-01-17T12:43:19.706Z,11.43
2023-01-17T12:45:50.273Z,9.30
2023-01-17T12:48:21.055Z,6.70
2023-01-17T12:50:54.076Z,11.93
2023-01-17T12:53:32.739Z,7.80
2023-01-17T12:56:09.596Z,6.37
2023-01-17T12:58:42.683Z,13.70
2023-01-17T13:01:21.120Z,10.33
2023-01-17T13:04:00.322Z,8.27
2023-01-17T13:06:47.181Z,3.27
2023-01-17T13:09:21.880Z,10.13
2023-01-17T13:11:56.610Z,8.43
2023-01-17T13:14:25.050Z,9.80
2023-01-17T13:16:59.085Z,11.07
2023-01-17T13:19:38.778Z,9.90
2023-01-17T13:22:17.397Z,7.80
2023-01-17T13:24:55.456Z,10.73
2023-01-17T13:27:53.541Z,15.47
2023-01-17T13:30:43.519Z,14.77
2023-01-17T13:33:33.459Z,11.27
2023-01-17T13:36:17.635Z,11.23
2023-01-17T13:39:07.428Z,11.03
2023-01-17T13:41:46.915Z,11.37
2023-01-17T13:44:25.581Z,10.73
2023-01-17T13:47:01.108Z,10.57
2023-01-17T13:49:44.169Z,13.10
2023-01-17T13:52:33.198Z,10.50
2023-01-17T13:55:04.216Z,11.97
2023-01-17T13:57:40.124Z,16.87
2023-01-17T14:00:59.867Z,8.57
2023-01-17T14:04:05.806Z,16.37
2023-01-17T14:06:44.258Z,13.97
2023-01-17T14:09:17.072Z,12.10
2023-01-17T14:12:07.801Z,10.03
2023-01-17T14:14:56.980Z,8.57
2023-01-17T14:17:55.795Z,10.37
2023-01-17T14:21:05.385Z,6.67
2023-01-17T14:24:07.137Z,7.23
2023-01-17T14:26:46.774Z,7.53
2023-01-17T14:29:50.921Z,11.63
2023-01-17T14:32:22.133Z,7.47
2023-01-17T14:34:52.484Z,8.83
2023-01-17T14:37:39.790Z,9.93
2023-01-17T14:40:20.347Z,8.37
2023-01-17T14:42:54.265Z,8.93
2023-01-17T14:45:29.446Z,12.57
2023-01-17T14:47:59.829Z,8.33
2023-01-17T14:50:30.611Z,10.53
2023-01-17T14:53:18.171Z,8.77
2023-01-17T14:55:56.647Z,14.23
2023-01-17T14:58:27.569Z,6.07
2023-01-17T15:01:00.076Z,10.67
2023-01-17T15:03:30.076Z,7.77
2023-01-17T15:06:05.006Z,8.30
2023-01-17T15:08:36.722Z,12.50
2023-01-17T15:11:07.542Z,11.83
2023-01-17T15:13:44.673Z,9.70
2023-01-17T15:16:21.809Z,12.97
2023-01-17T15:18:50.644Z,8.37
2023-01-17T15:21:21.609Z,10.00
2023-01-17T15:23:54.209Z,19.07
2023-01-17T15:26:25.349Z,8.73
2023-01-17T15:28:54.808Z,12.10
2023-01-17T15:31:25.836Z,10.47
2023-01-17T15:33:57.564Z,7.83
2023-01-17T15:36:30.223Z,7.10
2023-01-17T15:39:02.073Z,12.83
2023-01-17T15:41:34.800Z,6.80
2023-01-17T15:44:03.941Z,11.13
2023-01-17T15:46:41.740Z,11.47
2023-01-17T15:49:17.850Z,7.70
2023-01-17T15:51:52.958Z,14.60
2023-01-17T15:54:47.577Z,9.83
2023-01-17T15:57:20.372Z,7.53
2023-01-17T15:59:53.752Z,11.80
2023-01-17T16:02:31.487Z,11.63
2023-01-17T16:05:01.621Z,12.10
2023-01-17T16:07:34.082Z,8.93
2023-01-17T16:10:18.737Z,11.83
2023-01-17T16:12:47.594Z,10.67
2023-01-17T16:15:18.300Z,12.30
2023-01-17T16:17:50.070Z,12.07
2023-01-17T16:20:22.178Z,16.87
2023-01-17T16:22:51.306Z,12.23
2023-01-17T16:25:23.557Z,9.43
2023-01-17T16:27:53.549Z,15.77
2023-01-17T16:30:22.687Z,15.30
2023-01-17T16:32:51.360Z,14.07
2023-01-17T16:35:21.842Z,11.20
2023-01-17T16:37:51.248Z,12.33
2023-01-17T16:40:23.164Z,11.97
2023-01-17T16:42:51.655Z,12.97
2023-01-17T16:45:20.416Z,14.70
2023-01-17T16:47:49.815Z,9.37
2023-01-17T16:50:22.408Z,12.63
2023-01-17T16:52:50.855Z,11.57
2023-01-17T16:55:22.979Z,13.77
2023-01-17T16:57:51.895Z,11.53
2023-01-17T17:00:21.220Z,18.27
2023-01-17T17:02:51.327Z,14.00
2023-01-17T17:05:20.175Z,12.27
2023-01-17T17:07:51.664Z,12.83
2023-01-17T17:10:25.282Z,18.00
2023-01-17T17:12:54.472Z,14.47
2023-01-17T17:15:23.049Z,17.33
2023-01-17T17:17:51.582Z,18.27
2023-01-17T17:20:20.296Z,17.10
2023-01-17T17:22:52.391Z,12.47
2023-01-17T17:25:22.178Z,15.07
2023-01-17T17:27:50.907Z,12.00
2023-01-17T17:30:19.797Z,16.07
2023-01-17T17:32:48.470Z,14.37
2023-01-17T17:35:16.966Z,11.63
2023-01-17T17:37:45.395Z,12.67
2023-01-17T17:40:14.221Z,15.70
2023-01-17T17:42:44.921Z,10.83
2023-01-17T17:45:13.527Z,12.03
2023-01-17T17:47:41.890Z,14.17
2023-01-17T17:50:13.105Z,15.63
2023-01-17T17:52:44.165Z,14.43
2023-01-17T17:55:13.248Z,13.97
2023-01-17T17:57:41.698Z,12.40
2023-01-17T18:00:13.191Z,18.50
2023-01-17T18:02:41.734Z,11.60
2023-01-17T18:05:11.045Z,14.53
2023-01-17T18:07:39.592Z,12.63
2023-01-17T18:10:09.438Z,12.17
2023-01-17T18:12:37.889Z,10.93
2023-01-17T18:15:07.158Z,13.10
2023-01-17T18:17:37.247Z,12.73
2023-01-17T18:20:07.744Z,12.10
2023-01-17T18:22:36.417Z,12.53
2023-01-17T18:25:05.108Z,16.23
2023-01-17T18:27:33.634Z,11.07
2023-01-17T18:30:02.116Z,10.53
2023-01-17T18:32:30.561Z,13.83
2023-01-17T18:35:00.430Z,14.50
2023-01-17T18:37:28.816Z,15.67
2023-01-17T18:39:57.354Z,16.63
2023-01-17T18:42:26.909Z,12.27
2023-01-17T18:44:55.302Z,15.83
2023-01-17T18:47:23.912Z,14.73
2023-01-17T18:49:53.837Z,18.93
2023-01-17T18:52:23.708Z,12.30
2023-01-17T18:54:52.157Z,13.13
2023-01-17T18:57:20.664Z,16.90
2023-01-17T18:59:49.119Z,18.03
2023-01-17T19:02:19.613Z,15.23
2023-01-17T19:04:48.228Z,15.17
2023-01-17T19:07:16.747Z,18.83
2023-01-17T19:09:46.541Z,13.63
2023-01-17T19:12:15.229Z,16.30
2023-01-17T19:14:44.572Z,13.63
2023-01-17T19:17:13.078Z,13.17
2023-01-17T19:19:41.459Z,12.73
2023-01-17T19:22:09.904Z,15.87
2023-01-17T19:24:38.429Z,17.43
2023-01-17T19:27:08.699Z,17.97
2023-01-17T19:29:37.217Z,15.50
2023-01-17T19:32:07.525Z,11.93
2023-01-17T19:34:36.173Z,23.20
2023-01-17T19:37:06.144Z,14.37
2023-01-17T19:39:35.681Z,14.37
2023-01-17T19:42:04.811Z,21.70
2023-01-17T19:44:34.961Z,18.57
2023-01-17T19:47:03.993Z,16.37
2023-01-17T19:49:34.053Z,16.90
2023-01-17T19:52:03.589Z,19.63
2023-01-17T19:54:32.486Z,18.90
2023-01-17T19:57:01.423Z,20.27
2023-01-17T19:59:30.100Z,20.60
2023-01-17T20:02:02.635Z,16.70
2023-01-17T20:04:31.499Z,15.00
2023-01-17T20:07:00.471Z,14.13
2023-01-17T20:09:29.171Z,16.33
2023-01-17T20:11:58.209Z,26.47
2023-01-17T20:14:27.076Z,17.60
2023-01-17T20:16:55.939Z,16.93
2023-01-17T20:19:26.678Z,26.70
2023-01-17T20:21:55.705Z,17.57
2023-01-17T20:24:24.537Z,19.10
2023-01-17T20:26:53.237Z,17.43
2023-01-17T20:29:21.969Z,16.70
2023-01-17T20:31:52.647Z,21.70
2023-01-17T20:34:25.909Z,20.60
2023-01-17T20:36:59.425Z,25.20
2023-01-17T20:39:28.538Z,36.87
2023-01-17T20:41:57.739Z,28.00
2023-01-17T20:44:26.287Z,26.83
2023-01-17T20:46:55.092Z,22.23
2023-01-17T20:49:24.281Z,26.43
2023-01-17T20:51:56.577Z,29.83
2023-01-17T20:54:25.438Z,20.00
2023-01-17T20:56:55.509Z,37.20
2023-01-17T20:59:24.047Z,18.87
2023-01-17T21:01:53.101Z,24.90
2023-01-17T21:04:25.787Z,27.43
2023-01-17T21:06:54.774Z,31.43
2023-01-17T21:09:24.641Z,35.23
2023-01-17T21:11:54.473Z,33.33
2023-01-17T21:14:22.998Z,37.03
2023-01-17T21:16:51.832Z,26.37
2023-01-17T21:19:20.704Z,30.63
2023-01-17T21:21:50.229Z,23.50
2023-01-17T21:24:20.255Z,24.13
2023-01-17T21:26:51.583Z,22.23
2023-01-17T21:29:20.146Z,25.10
2023-01-17T21:31:48.690Z,21.87
2023-01-17T21:34:17.163Z,29.37
2023-01-17T21:36:45.592Z,29.70
2023-01-17T21:39:16.815Z,29.30
2023-01-17T21:41:47.986Z,29.43
2023-01-17T21:44:20.536Z,22.93
2023-01-17T21:46:54.206Z,24.30
2023-01-17T21:49:24.346Z,22.77
2023-01-17T21:52:10.292Z,18.23
2023-01-17T21:54:58.689Z,24.90
2023-01-17T21:57:44.577Z,26.93
2023-01-17T22:00:15.673Z,20.17
2023-01-17T22:02:44.752Z,21.87
2023-01-17T22:05:14.344Z,24.20
2023-01-17T22:08:03.549Z,26.60
2023-01-17T22:10:32.607Z,17.77
2023-01-17T22:13:01.199Z,26.00
2023-01-17T22:15:31.016Z,22.33
2023-01-17T22:17:59.868Z,22.37
2023-01-17T22:20:28.796Z,23.93
2023-01-17T22:22:57.579Z,24.50
2023-01-17T22:25:26.617Z,28.87
2023-01-17T22:27:55.489Z,20.60
2023-01-17T22:30:24.126Z,28.77
2023-01-17T22:32:54.097Z,33.57
2023-01-17T22:35:23.130Z,21.47
2023-01-17T22:37:51.732Z,20.43
2023-01-17T22:40:20.499Z,22.17
2023-01-17T22:42:49.123Z,25.87
2023-01-17T22:45:19.346Z,22.73
2023-01-17T22:47:48.278Z,18.17
2023-01-17T22:50:20.903Z,24.17
2023-01-17T22:52:49.363Z,25.70
2023-01-17T22:55:18.396Z,23.30
2023-01-17T22:57:47.912Z,20.60
2023-01-17T23:00:17.154Z,22.93
2023-01-17T23:02:45.686Z,17.57
2023-01-17T23:05:14.356Z,17.97
2023-01-17T23:07:46.767Z,24.37
2023-01-17T23:10:38.279Z,26.73
2023-01-17T23:13:10.512Z,42.93
2023-01-17T23:15:57.426Z,36.40
2023-01-17T23:18:43.167Z,32.60
2023-01-17T23:21:11.694Z,32.37
2023-01-17T23:23:41.493Z,32.47
2023-01-17T23:26:09.884Z,27.33
2023-01-17T23:28:37.252Z,23.90
2023-01-17T23:31:06.693Z,37.73
2023-01-17T23:33:35.024Z,23.83
2023-01-17T23:36:03.371Z,28.63
2023-01-17T23:38:30.994Z,23.63
2023-01-17T23:41:23.433Z,27.30
2023-01-17T23:43:52.728Z,27.63
2023-01-17T23:46:21.586Z,29.37
2023-01-17T23:48:50.014Z,23.73
2023-01-17T23:51:18.858Z,19.30
2023-01-17T23:53:47.624Z,28.17
2023-01-17T23:56:19.531Z,26.63
2023-01-17T23:58:47.970Z,26.70
